Kinrikimaru — JL6545 — position and weather

sailwx.info

Track history (hours):
 
Tides and Currents Weather Stations Pressure Air Temp Water Temp Dewpoint Dewpoint Depression Visibility Wind Speed Wind Dir Waves Ship Positions

Kinrikimaru

Last reported at 2016-May-29 16:31 UTC. Time now 2016-May-29 17:24 UTC.
Position N 34°35' E 135°27'.

Length 76 m; draft 3.6 m.

Type: Cargo ship. MMSI: 431500615.

Date/timePositionNaut miles runAvg speedWind from/ knotsBaromVisibWave heightAir tempDewpointWater temp
2016-May-29 16:31N 34°35' E 135°27'0 0.0
2016-May-29 09:32N 34°35' E 135°27'9 9.7
2016-May-29 08:33N 34°32' E 135°16'1312.6
2016-May-29 07:33N 34°22' E 135°06'236 9.8
2016-May-28 07:33N 35°14' E 139°46'1111.4
2016-May-28 06:33N 35°25' E 139°44'7 7.4
2016-May-28 05:33N 35°22' E 139°52'0 0.0
2016-May-28 04:33N 35°22' E 139°52'0 0.0
2016-May-28 03:33N 35°22' E 139°52'0 0.0
2016-May-28 02:33N 35°22' E 139°52'0 0.0
2016-May-28 01:34N 35°22' E 139°52'0 0.0
2016-May-28 00:33N 35°22' E 139°52'0 0.0
2016-May-27 23:34N 35°22' E 139°52'0 0.0
2016-May-27 22:33N 35°22' E 139°52'0 0.0
2016-May-27 21:33N 35°22' E 139°52'0 0.0
2016-May-27 20:33N 35°22' E 139°52'2 1.9
2016-May-27 19:34N 35°23' E 139°51'0 0.3
2016-May-27 18:31N 35°23' E 139°51'0 0.1
2016-May-27 17:31N 35°23' E 139°50'0 0.0
2016-May-27 16:28N 35°23' E 139°50'0 0.0
2016-May-27 15:28N 35°23' E 139°50'0 0.0
2016-May-27 14:28N 35°23' E 139°50'0 0.0
2016-May-27 13:31N 35°23' E 139°50'0 0.0
2016-May-27 12:31N 35°23' E 139°50'0 0.0
2016-May-27 11:31N 35°24' E 139°50'0 0.0
2016-May-27 10:31N 35°24' E 139°50'0 0.0
2016-May-27 09:28N 35°23' E 139°50'0 0.0
2016-May-27 08:31N 35°23' E 139°50'0 0.0
2016-May-27 07:31N 35°23' E 139°50'0 0.0
2016-May-27 06:31N 35°23' E 139°50'0 0.0
2016-May-27 05:31N 35°23' E 139°50'0 0.0
2016-May-27 04:31N 35°23' E 139°50'0 0.0
2016-May-27 03:28N 35°23' E 139°50'0 0.0
2016-May-27 02:28N 35°23' E 139°50'0 0.0
2016-May-27 01:19N 35°23' E 139°51'0 0.0
2016-May-27 00:28N 35°23' E 139°51'0 0.1
2016-May-26 23:31N 35°23' E 139°51'0 0.0
2016-May-26 22:32N 35°23' E 139°51'0 0.0
2016-May-26 21:33N 35°24' E 139°51'0 0.0
2016-May-26 20:33N 35°24' E 139°51'0 0.0
2016-May-26 19:33N 35°24' E 139°51'0 0.0
2016-May-26 18:33N 35°24' E 139°51'0 0.0
2016-May-26 17:33N 35°24' E 139°51'0 0.0
2016-May-26 16:33N 35°24' E 139°51'0 0.1
2016-May-26 15:33N 35°24' E 139°51'8 8.0
2016-May-26 14:33N 35°16' E 139°46'  
2016-May-20 11:19N 34°37' E 134°58'1013.3
2016-May-20 10:33N 34°36' E 135°10'1211.6
2016-May-20 09:33N 34°36' E 135°24'2 1.8
2016-May-20 08:32N 34°35' E 135°26'0 0.0
2016-May-20 07:32N 34°35' E 135°26'0 0.0
2016-May-20 06:32N 34°35' E 135°26'0 0.0
2016-May-20 04:20N 34°35' E 135°26'0 0.3
2016-May-20 03:33N 34°35' E 135°25'10 9.9
2016-May-20 02:33N 34°35' E 135°13'  
Track history (hours):
 
Tides and Currents Weather Stations Pressure Air Temp Water Temp Dewpoint Dewpoint Depression Visibility Wind Speed Wind Dir Waves Ship Positions

Kinrikimaru

Last reported at 2016-May-29 16:31 UTC. Time now 2016-May-29 17:24 UTC.
Position N 34°35' E 135°27'.

Length 76 m; draft 3.6 m.

Type: Cargo ship. MMSI: 431500615.

Date/timePositionNaut miles runAvg speedWind from/ knotsBaromVisibWave heightAir tempDewpointWater temp
2016-May-29 16:31N 34°35' E 135°27'0 0.0
2016-May-29 09:32N 34°35' E 135°27'9 9.7
2016-May-29 08:33N 34°32' E 135°16'1312.6
2016-May-29 07:33N 34°22' E 135°06'236 9.8
2016-May-28 07:33N 35°14' E 139°46'1111.4
2016-May-28 06:33N 35°25' E 139°44'7 7.4
2016-May-28 05:33N 35°22' E 139°52'0 0.0
2016-May-28 04:33N 35°22' E 139°52'0 0.0
2016-May-28 03:33N 35°22' E 139°52'0 0.0
2016-May-28 02:33N 35°22' E 139°52'0 0.0
2016-May-28 01:34N 35°22' E 139°52'0 0.0
2016-May-28 00:33N 35°22' E 139°52'0 0.0
2016-May-27 23:34N 35°22' E 139°52'0 0.0
2016-May-27 22:33N 35°22' E 139°52'0 0.0
2016-May-27 21:33N 35°22' E 139°52'0 0.0
2016-May-27 20:33N 35°22' E 139°52'2 1.9
2016-May-27 19:34N 35°23' E 139°51'0 0.3
2016-May-27 18:31N 35°23' E 139°51'0 0.1
2016-May-27 17:31N 35°23' E 139°50'0 0.0
2016-May-27 16:28N 35°23' E 139°50'0 0.0
2016-May-27 15:28N 35°23' E 139°50'0 0.0
2016-May-27 14:28N 35°23' E 139°50'0 0.0
2016-May-27 13:31N 35°23' E 139°50'0 0.0
2016-May-27 12:31N 35°23' E 139°50'0 0.0
2016-May-27 11:31N 35°24' E 139°50'0 0.0
2016-May-27 10:31N 35°24' E 139°50'0 0.0
2016-May-27 09:28N 35°23' E 139°50'0 0.0
2016-May-27 08:31N 35°23' E 139°50'0 0.0
2016-May-27 07:31N 35°23' E 139°50'0 0.0
2016-May-27 06:31N 35°23' E 139°50'0 0.0
2016-May-27 05:31N 35°23' E 139°50'0 0.0
2016-May-27 04:31N 35°23' E 139°50'0 0.0
2016-May-27 03:28N 35°23' E 139°50'0 0.0
2016-May-27 02:28N 35°23' E 139°50'0 0.0
2016-May-27 01:19N 35°23' E 139°51'0 0.0
2016-May-27 00:28N 35°23' E 139°51'0 0.1
2016-May-26 23:31N 35°23' E 139°51'0 0.0
2016-May-26 22:32N 35°23' E 139°51'0 0.0
2016-May-26 21:33N 35°24' E 139°51'0 0.0
2016-May-26 20:33N 35°24' E 139°51'0 0.0
2016-May-26 19:33N 35°24' E 139°51'0 0.0
2016-May-26 18:33N 35°24' E 139°51'0 0.0
2016-May-26 17:33N 35°24' E 139°51'0 0.0
2016-May-26 16:33N 35°24' E 139°51'0 0.1
2016-May-26 15:33N 35°24' E 139°51'8 8.0
2016-May-26 14:33N 35°16' E 139°46'  
2016-May-20 11:19N 34°37' E 134°58'1013.3
2016-May-20 10:33N 34°36' E 135°10'1211.6
2016-May-20 09:33N 34°36' E 135°24'2 1.8
2016-May-20 08:32N 34°35' E 135°26'0 0.0
2016-May-20 07:32N 34°35' E 135°26'0 0.0
2016-May-20 06:32N 34°35' E 135°26'0 0.0
2016-May-20 04:20N 34°35' E 135°26'0 0.3
2016-May-20 03:33N 34°35' E 135°25'10 9.9
2016-May-20 02:33N 34°35' E 135°13'  

Dump ship's entire track history